Time;durP1;ratioP1;P1;durP2;ratioP2;P2;SDS_P1;SDS_P2;PMS_P1;PMS_P2;Temp;Humidity;BMP_temperature;BMP_pressure;BME280_temperature;BME280_humidity;BME280_pressure;Samples;Min_cycle;Max_cycle;Signal;HPM_P1;HPM_P2
2022/01/28 00:04:56;;;;;;;;;;;;;;;5.20;76.65;102737.00;10504306;28;20093;-85
2022/01/28 00:09:58;;;;;;;10.38;1.25;;;;;;;5.04;76.67;102743.47;10497886;28;20550;-83
2022/01/28 00:15:11;;;;;;;12.10;1.58;;;;;;;5.04;76.74;102740.91;10490236;28;20036;-85
2022/01/28 00:20:53;;;;;;;10.35;1.33;;;;;;;5.14;76.97;102754.41;10497375;28;20048;-85
2022/01/28 00:36:46;;;;;;;18.27;2.10;;;;;;;4.95;77.45;102770.88;10518745;28;20380;-86
2022/01/28 00:41:47;;;;;;;21.02;1.80;;;;;;;4.87;77.40;102759.16;10491812;28;20064;-84
2022/01/28 00:46:49;;;;;;;16.45;1.88;;;;;;;4.84;77.68;102774.22;10487514;28;20105;-84
2022/01/28 00:51:51;;;;;;;20.75;2.20;;;;;;;4.76;77.77;102782.16;10492067;28;20549;-86
2022/01/28 00:56:52;;;;;;;12.68;1.48;;;;;;;4.62;77.58;102782.72;10519542;28;20132;-83
2022/01/28 01:01:54;;;;;;;16.35;2.35;;;;;;;4.66;77.86;102791.50;10506753;28;20047;-85
2022/01/28 01:06:56;;;;;;;13.60;1.80;;;;;;;4.75;76.80;102805.91;10519478;28;20135;-85
2022/01/28 01:11:57;;;;;;;13.07;1.83;;;;;;;4.68;76.75;102807.84;10487109;28;20048;-83
2022/01/28 01:22:01;;;;;;;19.73;2.58;;;;;;;4.89;76.01;102824.00;10509827;28;20098;-86
2022/01/28 01:27:04;;;;;;;16.98;1.75;;;;;;;4.73;76.39;102832.97;10504002;28;20468;-84
2022/01/28 01:32:12;;;;;;;12.88;1.90;;;;;;;4.75;76.14;102831.44;10491734;28;20052;-85
2022/01/28 01:37:14;;;;;;;14.52;1.77;;;;;;;4.74;75.72;102839.00;10468326;28;20462;-83
2022/01/28 01:42:28;;;;;;;15.65;1.27;;;;;;;4.61;75.65;102847.31;10471634;28;20055;-85
2022/01/28 01:52:56;;;;;;;12.65;2.80;;;;;;;4.48;76.19;102873.47;10517221;28;20491;-84
2022/01/28 01:57:58;;;;;;;8.32;1.33;;;;;;;4.36;75.85;102881.00;10491692;28;20163;-83
2022/01/28 02:02:59;;;;;;;14.98;1.92;;;;;;;4.32;76.94;102886.63;10502751;28;20098;-85
2022/01/28 02:08:06;;;;;;;12.20;1.52;;;;;;;4.15;77.13;102894.53;10495938;28;20488;-85
2022/01/28 02:13:21;;;;;;;14.18;1.48;;;;;;;4.04;77.56;102885.97;10498816;28;20135;-85
2022/01/28 02:18:23;;;;;;;6.03;1.30;;;;;;;4.15;77.49;102902.19;10504459;28;20226;-85
2022/01/28 02:23:25;;;;;;;12.50;1.67;;;;;;;4.15;77.50;102894.53;10485631;28;20058;-85
2022/01/28 02:28:29;;;;;;;17.38;1.77;;;;;;;4.07;77.25;102904.09;10492354;28;20090;-84
2022/01/28 02:33:31;;;;;;;12.73;1.33;;;;;;;3.99;77.47;102913.63;10458698;28;20052;-85
2022/01/28 02:38:34;;;;;;;11.07;2.15;;;;;;;3.92;77.98;102914.78;10492083;28;20040;-86
2022/01/28 02:49:01;;;;;;;15.80;2.15;;;;;;;3.86;78.02;102931.22;10514933;28;20483;-85
2022/01/28 02:54:15;;;;;;;12.38;1.80;;;;;;;3.85;78.90;102925.22;10500443;28;20469;-84
2022/01/28 02:59:18;;;;;;;17.13;1.65;;;;;;;3.73;78.53;102940.38;10458434;28;20052;-85
2022/01/28 03:15:05;;;;;;;18.13;1.88;;;;;;;3.70;78.16;102950.28;10507604;28;20461;-84
2022/01/28 03:25:21;;;;;;;18.00;1.48;;;;;;;3.69;78.22;102968.88;10492015;28;20076;-84
2022/01/28 03:30:23;;;;;;;17.05;2.03;;;;;;;3.63;78.77;102956.53;10467050;28;20135;-84
2022/01/28 03:35:27;;;;;;;12.77;1.48;;;;;;;3.70;78.54;102970.69;10500395;28;20056;-83
2022/01/28 03:40:35;;;;;;;15.63;1.77;;;;;;;3.71;79.44;102971.59;10471774;28;20159;-84
2022/01/28 03:45:37;;;;;;;16.73;1.65;;;;;;;3.63;78.90;102989.66;10477651;28;20400;-84
2022/01/28 03:50:39;;;;;;;18.25;1.98;;;;;;;3.60;79.72;102978.28;10504812;28;20137;-84
2022/01/28 03:55:44;;;;;;;16.08;1.45;;;;;;;3.61;78.79;102980.09;10503132;28;20504;-83
2022/01/28 04:00:45;;;;;;;11.52;1.60;;;;;;;3.65;78.56;103002.53;10482518;28;20131;-86
2022/01/28 04:11:28;;;;;;;15.55;1.30;;;;;;;3.70;78.89;102996.16;10519279;28;20073;-85
2022/01/28 04:21:31;;;;;;;10.68;1.60;;;;;;;4.17;78.96;103010.38;10498007;28;20112;-86
2022/01/28 04:26:32;;;;;;;11.80;1.27;;;;;;;4.05;78.16;103010.19;10494723;28;20124;-85
2022/01/28 04:31:35;;;;;;;12.52;1.33;;;;;;;4.06;78.71;103023.06;10487574;28;20456;-84
2022/01/28 04:36:47;;;;;;;18.13;2.08;;;;;;;4.09;78.04;103033.56;10511449;28;20040;-83
2022/01/28 04:42:06;;;;;;;13.43;1.27;;;;;;;3.96;78.30;103031.59;10505870;28;20048;-83
2022/01/28 04:47:17;;;;;;;14.18;1.75;;;;;;;3.85;77.96;103032.31;10500175;28;20041;-84
2022/01/28 04:52:56;;;;;;;;;;;;;;;3.94;77.89;103050.09;10491687;28;20045;-83
2022/01/28 04:58:07;;;;;;;8.60;1.27;;;;;;;3.81;79.09;103056.66;10492624;28;19920;-83
2022/01/28 05:24:18;;;;;;;14.52;1.83;;;;;;;4.33;78.05;103077.28;10493048;28;20040;-84
2022/01/28 05:29:19;;;;;;;8.40;1.25;;;;;;;4.23;77.70;103077.22;10460878;28;20055;-84
2022/01/28 05:34:27;;;;;;;14.38;1.45;;;;;;;4.01;78.08;103077.91;10469101;28;20044;-86
2022/01/28 05:39:28;;;;;;;12.27;1.40;;;;;;;3.94;78.35;103094.34;10476022;28;20491;-83
2022/01/28 05:44:30;;;;;;;14.98;1.08;;;;;;;3.97;77.78;103115.00;10488194;28;20240;-84
2022/01/28 05:49:32;;;;;;;15.10;1.88;;;;;;;4.05;78.22;103127.53;10478183;28;20041;-83
2022/01/28 05:54:33;;;;;;;15.60;1.67;;;;;;;3.99;79.01;103135.53;10487146;28;20567;-84
2022/01/28 05:59:35;;;;;;;10.30;1.58;;;;;;;4.00;78.98;103139.88;10466887;28;20068;-84
2022/01/28 06:04:38;;;;;;;16.73;1.67;;;;;;;4.04;78.71;103147.06;10506802;28;20131;-84
2022/01/28 06:09:40;;;;;;;9.60;1.15;;;;;;;4.06;78.53;103155.72;10502100;28;20090;-84
2022/01/28 06:14:41;;;;;;;10.30;1.25;;;;;;;3.98;78.67;103161.84;10472652;28;20054;-85
2022/01/28 06:19:43;;;;;;;15.00;2.20;;;;;;;3.91;79.52;103175.69;10474469;28;20131;-85
2022/01/28 06:24:44;;;;;;;19.73;1.40;;;;;;;3.92;79.35;103179.09;10489787;28;20064;-86
2022/01/28 06:29:46;;;;;;;8.55;1.20;;;;;;;3.75;80.05;103188.72;10500628;28;20144;-85
2022/01/28 06:34:47;;;;;;;12.38;1.63;;;;;;;3.37;80.96;103188.66;10501676;28;20048;-84
2022/01/28 06:39:49;;;;;;;7.72;1.67;;;;;;;3.41;80.11;103200.91;10487655;28;20461;-85
2022/01/28 06:44:50;;;;;;;14.07;1.83;;;;;;;3.23;81.04;103204.31;10484375;28;20103;-84
2022/01/28 06:49:52;;;;;;;17.08;2.83;;;;;;;3.11;80.60;103210.06;10473488;28;20095;-84
2022/01/28 06:54:54;;;;;;;16.10;1.60;;;;;;;3.00;81.55;103220.91;10471795;28;20484;-81
2022/01/28 06:59:56;;;;;;;12.63;1.83;;;;;;;2.77;81.81;103239.97;10497080;28;20489;-81
2022/01/28 07:04:59;;;;;;;14.63;1.45;;;;;;;2.56;82.19;103255.75;10496878;28;20049;-81
2022/01/28 07:10:01;;;;;;;9.30;1.45;;;;;;;2.75;81.26;103263.50;10480145;28;20056;-81
2022/01/28 07:21:30;;;;;;;19.90;1.92;;;;;;;2.63;81.72;103263.22;10496954;28;20044;-82
2022/01/28 07:26:32;;;;;;;11.85;1.55;;;;;;;2.73;83.65;103270.09;10490619;28;20465;-82
2022/01/28 07:31:35;;;;;;;11.55;1.63;;;;;;;2.77;84.54;103268.00;10521388;28;20495;-82
2022/01/28 07:36:39;;;;;;;17.70;1.52;;;;;;;3.03;83.61;103268.66;10521839;28;20499;-81
2022/01/28 07:41:41;;;;;;;14.05;1.67;;;;;;;3.05;83.06;103280.78;10555575;28;20387;-83
2022/01/28 07:46:43;;;;;;;22.95;2.20;;;;;;;3.27;83.58;103298.09;10514501;28;20488;-82
2022/01/28 07:51:49;;;;;;;16.33;1.70;;;;;;;3.58;82.45;103295.88;10480412;28;20045;-82
2022/01/28 07:56:53;;;;;;;13.63;1.85;;;;;;;3.61;83.21;103302.16;10486698;28;20109;-82
2022/01/28 08:01:55;;;;;;;7.07;1.17;;;;;;;3.88;81.99;103308.00;10487204;28;20403;-83
2022/01/28 08:06:57;;;;;;;16.52;1.70;;;;;;;4.05;81.88;103321.41;10486599;28;20094;-83
2022/01/28 08:11:59;;;;;;;12.07;1.45;;;;;;;4.12;81.84;103334.88;10506023;28;20048;-83
2022/01/28 08:17:00;;;;;;;11.07;1.58;;;;;;;4.16;82.28;103340.25;10502595;28;20078;-82
2022/01/28 08:22:02;;;;;;;18.50;2.05;;;;;;;4.37;81.70;103338.75;10503228;28;20048;-83
2022/01/28 08:27:04;;;;;;;17.77;1.75;;;;;;;4.50;80.59;103348.44;10516284;28;20142;-83
2022/01/28 08:32:06;;;;;;;17.15;1.80;;;;;;;4.52;80.43;103339.22;10543840;28;20380;-83
2022/01/28 08:37:10;;;;;;;11.93;2.10;;;;;;;4.45;79.95;103348.03;10526888;28;20052;-83
2022/01/28 08:42:14;;;;;;;16.40;1.77;;;;;;;4.72;79.80;103343.59;10543919;28;20102;-82
2022/01/28 08:47:15;;;;;;;19.48;3.03;;;;;;;4.61;79.44;103352.84;10506851;28;20043;-83
2022/01/28 08:52:19;;;;;;;22.25;2.15;;;;;;;4.73;79.66;103359.03;10512994;28;20134;-83
2022/01/28 08:57:21;;;;;;;5.53;1.25;;;;;;;4.72;80.68;103356.34;10513888;28;20052;-83
2022/01/28 09:02:28;;;;;;;12.55;1.85;;;;;;;5.01;79.23;103361.50;10544166;28;20376;-83
2022/01/28 09:08:32;;;;;;;16.80;1.98;;;;;;;5.15;78.62;103366.91;10510992;28;20044;-82
2022/01/28 09:13:37;;;;;;;10.90;2.13;;;;;;;5.05;78.45;103368.66;10492044;28;20052;-84
2022/01/28 09:18:43;;;;;;;13.82;2.75;;;;;;;5.27;78.03;103374.78;10478166;28;20491;-83
2022/01/28 09:23:46;;;;;;;8.50;2.13;;;;;;;5.26;78.46;103372.97;10487711;28;20441;-82
2022/01/28 09:28:49;;;;;;;26.90;2.30;;;;;;;5.38;77.87;103364.72;10488576;28;20059;-84
2022/01/28 09:33:51;;;;;;;17.70;2.60;;;;;;;5.64;77.38;103371.16;10473747;28;20072;-82
2022/01/28 09:38:53;;;;;;;12.27;2.28;;;;;;;5.92;78.27;103380.31;10510234;28;20047;-83
2022/01/28 09:43:57;;;;;;;15.98;2.05;;;;;;;5.94;76.88;103389.91;10495138;28;20051;-83
2022/01/28 09:48:58;;;;;;;20.02;2.63;;;;;;;6.18;76.44;103401.34;10483364;28;20053;-83
2022/01/28 09:54:01;;;;;;;18.88;2.28;;;;;;;6.45;75.18;103411.19;10496720;28;20045;-84
2022/01/28 09:59:03;;;;;;;16.23;2.50;;;;;;;6.84;74.68;103402.44;10494435;28;20132;-86
2022/01/28 10:04:07;;;;;;;18.38;2.50;;;;;;;6.89;73.42;103401.16;10493135;28;20044;-85
2022/01/28 10:09:17;;;;;;;15.70;2.63;;;;;;;6.99;73.66;103408.81;10484502;28;20048;-85
2022/01/28 10:14:22;;;;;;;14.07;2.42;;;;;;;6.99;73.40;103413.94;10516841;28;20050;-84
2022/01/28 10:19:26;;;;;;;18.63;2.63;;;;;;;6.79;73.35;103411.44;10502914;28;20056;-85
2022/01/28 10:24:28;;;;;;;18.98;1.95;;;;;;;7.25;74.25;103425.41;10492268;28;20048;-85
2022/01/28 10:29:35;;;;;;;22.85;2.30;;;;;;;7.15;72.30;103415.19;10485722;28;20581;-85
2022/01/28 10:34:43;;;;;;;20.33;2.47;;;;;;;7.19;72.08;103412.09;10505734;28;20143;-83
2022/01/28 10:39:47;;;;;;;10.10;2.20;;;;;;;7.39;71.41;103410.22;10523875;28;20471;-85
2022/01/28 10:45:01;;;;;;;21.93;2.57;;;;;;;7.78;69.81;103411.56;10505881;28;20094;-85
2022/01/28 10:50:22;;;;;;;12.98;2.20;;;;;;;8.42;68.76;103409.56;10466189;28;20393;-85
2022/01/28 10:55:24;;;;;;;22.00;2.70;;;;;;;8.53;68.15;103408.69;10469888;28;20041;-85
2022/01/28 11:00:28;;;;;;;26.35;2.70;;;;;;;8.34;67.34;103420.94;10495570;28;20123;-84
2022/01/28 11:05:32;;;;;;;16.52;2.30;;;;;;;8.20;68.52;103417.31;10475501;28;20488;-85
2022/01/28 11:10:38;;;;;;;22.23;2.60;;;;;;;8.40;69.26;103421.38;10466755;28;20080;-84
2022/01/28 11:15:43;;;;;;;21.58;2.92;;;;;;;8.29;67.89;103402.59;10474421;28;20140;-84
2022/01/28 11:20:49;;;;;;;16.38;1.88;;;;;;;9.00;66.61;103388.94;10503806;28;20453;-83
2022/01/28 11:26:14;;;;;;;17.75;2.08;;;;;;;9.16;64.00;103381.56;10515029;28;20048;-84
2022/01/28 11:31:56;;;;;;;18.75;2.42;;;;;;;9.35;63.09;103372.56;10538076;28;20436;-84
2022/01/28 11:37:17;;;;;;;17.27;2.78;;;;;;;9.19;61.48;103361.22;10504509;28;20055;-83
2022/01/28 11:42:29;;;;;;;21.58;2.40;;;;;;;8.66;60.25;103368.53;10500935;28;20135;-82
2022/01/28 11:47:38;;;;;;;17.30;2.45;;;;;;;8.16;62.80;103369.94;10502364;28;20044;-84
2022/01/28 11:52:46;;;;;;;15.57;2.40;;;;;;;7.85;63.06;103362.50;10483417;28;20041;-83
2022/01/28 11:58:20;;;;;;;17.40;2.58;;;;;;;8.36;63.18;103368.88;10491255;28;20509;-84
2022/01/28 12:03:28;;;;;;;16.23;2.30;;;;;;;8.38;62.30;103359.63;10445775;28;20057;-84
2022/01/28 12:08:31;;;;;;;17.75;2.50;;;;;;;8.35;62.21;103355.94;10521775;28;20048;-84
2022/01/28 12:14:04;;;;;;;15.45;2.35;;;;;;;8.68;62.79;103357.56;10511591;28;20094;-83
2022/01/28 12:19:21;;;;;;;21.40;2.40;;;;;;;8.71;62.54;103342.34;10528993;28;20060;-83
2022/01/28 12:24:23;;;;;;;16.65;2.10;;;;;;;9.18;59.00;103331.13;10506004;28;20499;-83
2022/01/28 12:29:33;;;;;;;16.67;2.47;;;;;;;9.89;57.50;103335.13;10479231;28;20052;-82
2022/01/28 12:34:45;;;;;;;13.95;2.35;;;;;;;9.68;58.49;103324.25;10481666;28;20045;-83
2022/01/28 12:39:56;;;;;;;18.33;3.33;;;;;;;10.29;56.84;103311.13;10477332;28;20069;-83
2022/01/28 12:44:59;;;;;;;18.30;3.30;;;;;;;10.23;55.81;103314.19;10468892;28;20048;-82
2022/01/28 12:50:04;;;;;;;17.27;2.13;;;;;;;10.08;55.76;103311.50;10492359;28;20381;-82
2022/01/28 12:55:06;;;;;;;7.97;2.00;;;;;;;10.89;54.75;103296.97;10445610;28;20143;-82
2022/01/28 13:00:09;;;;;;;14.57;1.85;;;;;;;10.91;55.33;103289.31;10496656;28;20102;-83
2022/01/28 13:05:15;;;;;;;18.48;2.17;;;;;;;10.01;58.98;103291.28;10465827;28;20045;-85
2022/01/28 13:10:19;;;;;;;17.17;2.05;;;;;;;9.44;56.81;103292.56;10482808;28;20059;-84
2022/01/28 13:15:20;;;;;;;17.48;2.00;;;;;;;9.31;58.79;103290.81;10465721;28;20072;-84
2022/01/28 13:20:23;;;;;;;15.63;2.00;;;;;;;9.12;58.96;103274.09;10473371;28;20102;-85
2022/01/28 13:25:28;;;;;;;11.70;1.60;;;;;;;9.58;59.35;103270.34;10490637;28;20381;-85
2022/01/28 13:30:39;;;;;;;8.70;1.50;;;;;;;9.03;58.90;103270.91;10517631;28;20513;-85
2022/01/28 13:35:58;;;;;;;14.27;2.10;;;;;;;8.60;59.00;103260.16;10497010;28;20056;-83
2022/01/28 13:41:18;;;;;;;13.80;1.70;;;;;;;8.65;59.33;103261.38;10483478;28;20045;-85
2022/01/28 13:46:21;;;;;;;13.68;1.80;;;;;;;8.61;59.13;103243.91;10474720;28;20036;-85
2022/01/28 13:51:23;;;;;;;9.15;1.45;;;;;;;9.12;59.11;103255.22;10505242;28;20051;-85
2022/01/28 13:56:25;;;;;;;12.27;1.90;;;;;;;9.58;56.44;103258.38;10518903;28;20044;-85
2022/01/28 14:01:28;;;;;;;11.68;1.77;;;;;;;9.25;57.39;103259.53;10495860;28;20139;-83
2022/01/28 14:06:32;;;;;;;12.98;1.80;;;;;;;9.25;59.07;103252.69;10462068;28;20051;-83
2022/01/28 14:11:43;;;;;;;15.10;1.77;;;;;;;9.16;59.15;103260.69;10479487;28;20075;-83
2022/01/28 14:16:49;;;;;;;8.88;1.48;;;;;;;9.02;59.44;103245.97;10506673;28;20074;-83
2022/01/28 14:21:52;;;;;;;16.77;2.17;;;;;;;9.10;58.96;103255.13;10513186;28;20045;-82
2022/01/28 14:32:09;;;;;;;9.07;1.50;;;;;;;8.41;62.24;103274.19;10523674;28;20070;-83
2022/01/28 14:37:10;;;;;;;7.97;1.25;;;;;;;8.46;62.80;103269.38;10461896;28;20403;-82
2022/01/28 14:42:14;;;;;;;10.35;2.05;;;;;;;8.80;62.07;103265.03;10517301;28;20097;-84
2022/01/28 14:47:17;;;;;;;14.25;1.50;;;;;;;8.48;62.30;103280.72;10491206;28;20068;-84
2022/01/28 14:52:21;;;;;;;12.10;1.58;;;;;;;8.19;63.07;103277.75;10482985;28;20090;-84
2022/01/28 14:57:25;;;;;;;14.63;1.92;;;;;;;8.02;64.14;103268.81;10466132;28;20087;-83
2022/01/28 15:02:27;;;;;;;17.45;1.90;;;;;;;7.79;65.00;103267.06;10482459;28;20127;-84
2022/01/28 15:07:32;;;;;;;8.52;1.38;;;;;;;7.79;65.82;103261.94;10471255;28;20060;-84
2022/01/28 15:12:33;;;;;;;14.93;2.33;;;;;;;7.92;65.34;103256.97;10488829;28;20084;-83
2022/01/28 15:17:35;;;;;;;12.98;1.50;;;;;;;7.81;65.73;103262.94;10477145;28;20032;-84
2022/01/28 15:22:37;;;;;;;10.75;1.50;;;;;;;7.56;66.66;103268.78;10501497;28;20072;-84
2022/01/28 15:27:41;;;;;;;9.45;1.35;;;;;;;7.37;67.27;103263.03;10492888;28;20089;-84
2022/01/28 15:38:08;;;;;;;15.35;2.25;;;;;;;7.12;68.31;103251.78;10469142;28;20094;-84
2022/01/28 15:43:10;;;;;;;10.73;2.15;;;;;;;6.98;68.61;103248.13;10510780;28;20134;-84
2022/01/28 15:48:12;;;;;;;9.73;1.38;;;;;;;7.02;69.16;103235.56;10477034;28;20043;-84
2022/01/28 15:53:13;;;;;;;10.63;1.92;;;;;;;6.82;69.20;103233.22;10505593;28;20127;-84
2022/01/28 15:58:15;;;;;;;7.80;1.77;;;;;;;6.90;70.08;103227.81;10486068;28;20127;-83
2022/01/28 16:03:17;;;;;;;10.13;1.80;;;;;;;6.86;70.07;103231.78;10501723;28;20102;-83
2022/01/28 16:08:21;;;;;;;9.77;2.28;;;;;;;6.75;70.99;103227.47;10469773;28;20072;-84
2022/01/28 16:13:28;;;;;;;9.57;1.92;;;;;;;6.75;71.00;103227.47;10487437;28;20132;-83
2022/01/28 16:18:30;;;;;;;9.90;1.80;;;;;;;6.76;71.28;103225.06;10492494;28;20055;-83
2022/01/28 16:23:32;;;;;;;13.60;2.15;;;;;;;6.76;71.06;103212.25;10493724;28;20040;-83
2022/01/28 16:28:35;;;;;;;13.10;2.00;;;;;;;6.72;71.15;103223.00;10494119;28;20567;-86
2022/01/28 16:33:37;;;;;;;10.63;2.63;;;;;;;6.67;71.32;103216.63;10477969;28;20059;-84
2022/01/28 16:38:39;;;;;;;11.43;2.65;;;;;;;6.51;72.02;103219.66;10495143;28;20136;-84
2022/01/28 16:43:48;;;;;;;12.32;3.28;;;;;;;6.52;71.85;103211.16;10508269;28;20047;-84
2022/01/28 16:48:54;;;;;;;10.50;3.20;;;;;;;6.51;71.96;103212.84;10495737;28;20036;-84
2022/01/28 16:53:55;;;;;;;9.10;3.20;;;;;;;6.50;72.38;103205.06;10508099;28;20691;-83
2022/01/28 16:58:57;;;;;;;10.85;2.95;;;;;;;6.32;72.69;103196.81;10461509;28;20119;-84
2022/01/28 17:03:59;;;;;;;10.50;3.25;;;;;;;6.30;73.32;103176.19;10493282;28;20059;-84
2022/01/28 17:09:03;;;;;;;10.60;4.00;;;;;;;6.07;73.61;103181.13;10510042;28;20489;-84
2022/01/28 17:14:05;;;;;;;15.85;4.95;;;;;;;6.12;73.73;103169.59;10470920;28;20048;-84
2022/01/28 17:19:07;;;;;;;11.73;4.70;;;;;;;6.13;74.38;103168.81;10494948;28;20423;-84
2022/01/28 17:24:08;;;;;;;18.40;5.28;;;;;;;6.17;74.17;103168.28;10507497;28;20119;-84
2022/01/28 17:29:30;;;;;;;16.23;5.40;;;;;;;6.25;74.09;103151.88;10465018;28;20041;-83
2022/01/28 17:34:31;;;;;;;12.07;5.13;;;;;;;6.14;74.22;103157.81;10492534;28;20396;-84
2022/01/28 17:39:33;;;;;;;15.90;5.50;;;;;;;6.12;74.31;103164.47;10493600;28;20154;-84
2022/01/28 17:44:36;;;;;;;17.27;5.30;;;;;;;6.16;74.59;103162.28;10496092;28;20051;-83
2022/01/28 17:49:37;;;;;;;13.70;5.63;;;;;;;6.23;74.18;103150.84;10479079;28;20127;-83
2022/01/28 17:54:39;;;;;;;21.58;5.45;;;;;;;6.08;75.33;103137.75;10498743;28;20056;-83
2022/01/28 17:59:41;;;;;;;14.73;5.65;;;;;;;5.98;75.24;103146.31;10487305;28;20047;-82
2022/01/28 18:04:43;;;;;;;17.13;6.22;;;;;;;6.10;75.19;103140.41;10522323;28;20139;-83
2022/01/28 18:09:45;;;;;;;23.23;8.88;;;;;;;6.13;75.80;103135.56;10483328;28;20110;-85
2022/01/28 18:14:46;;;;;;;22.77;9.57;;;;;;;6.10;77.16;103130.19;10476245;28;20049;-85
2022/01/28 18:19:48;;;;;;;24.65;12.75;;;;;;;6.15;78.44;103118.63;10476855;28;20044;-86
2022/01/28 18:24:50;;;;;;;36.45;15.70;;;;;;;6.16;79.80;103110.19;10484894;28;20048;-87
2022/01/28 18:29:52;;;;;;;33.58;16.75;;;;;;;6.02;81.13;103115.09;10480984;28;20097;-85
2022/01/28 18:34:54;;;;;;;36.90;18.80;;;;;;;5.92;81.75;103120.22;10532170;28;20468;-83
2022/01/28 18:39:56;;;;;;;35.67;19.67;;;;;;;5.85;81.74;103102.56;10484268;28;20056;-88
2022/01/28 18:44:58;;;;;;;40.28;21.30;;;;;;;5.70;82.27;103087.78;10490503;28;20484;-86
2022/01/28 18:50:02;;;;;;;50.65;22.88;;;;;;;5.76;81.96;103096.75;10486433;28;20389;-85
2022/01/28 18:55:05;;;;;;;46.03;23.55;;;;;;;5.72;81.97;103096.47;10474573;28;20539;-84
2022/01/28 19:00:09;;;;;;;46.60;22.95;;;;;;;5.75;82.83;103075.38;10471824;28;20384;-86
2022/01/28 19:05:11;;;;;;;47.58;23.35;;;;;;;5.83;83.00;103070.88;10480851;28;20044;-83
2022/01/28 19:10:17;;;;;;;62.47;25.52;;;;;;;5.77;82.69;103080.63;10435252;28;20551;-85
2022/01/28 19:15:23;;;;;;;57.25;26.02;;;;;;;5.77;83.76;103072.94;10496345;28;20052;-86
2022/01/28 19:20:26;;;;;;;51.85;24.33;;;;;;;5.73;82.61;103082.03;10487096;28;20044;-87
2022/01/28 19:25:27;;;;;;;57.72;26.90;;;;;;;5.80;82.68;103089.44;10473842;28;20048;-86
2022/01/28 19:30:29;;;;;;;54.35;25.08;;;;;;;5.82;83.16;103089.56;10492794;28;20464;-85
2022/01/28 19:35:31;;;;;;;61.63;25.63;;;;;;;5.80;82.36;103089.44;10452244;28;20045;-86
2022/01/28 19:40:32;;;;;;;53.08;23.50;;;;;;;5.74;82.55;103083.81;10461822;28;20057;-85
2022/01/28 19:45:38;;;;;;;55.38;25.23;;;;;;;5.85;81.44;103066.75;10471222;28;20460;-86
2022/01/28 19:50:41;;;;;;;54.70;25.02;;;;;;;5.71;81.65;103061.44;10482995;28;20053;-86
2022/01/28 19:55:43;;;;;;;58.78;22.88;;;;;;;5.69;82.27;103070.69;10490669;28;20047;-86
2022/01/28 20:00:45;;;;;;;60.78;26.40;;;;;;;5.87;81.74;103065.22;10477301;28;20041;-85
2022/01/28 20:05:47;;;;;;;56.78;24.10;;;;;;;5.65;82.28;103053.28;10493567;28;20048;-87
2022/01/28 20:10:49;;;;;;;65.82;26.00;;;;;;;5.65;81.87;103037.94;10480126;28;20040;-87
2022/01/28 20:15:52;;;;;;;63.45;26.05;;;;;;;5.60;83.07;103028.09;10491740;28;20040;-86
2022/01/28 20:20:56;;;;;;;59.92;25.98;;;;;;;5.62;82.56;103021.44;10534851;28;20483;-86
2022/01/28 20:25:58;;;;;;;60.95;25.13;;;;;;;5.56;82.57;103014.16;10517683;28;20094;-86
2022/01/28 20:30:59;;;;;;;72.05;28.45;;;;;;;5.63;82.53;103021.56;10534597;28;20094;-87
2022/01/28 20:36:06;;;;;;;64.63;25.90;;;;;;;5.65;82.15;103016.59;10484692;28;20557;-84
2022/01/28 20:41:09;;;;;;;61.97;25.75;;;;;;;5.54;82.48;103008.94;10521257;28;20048;-83
2022/01/28 20:46:12;;;;;;;68.03;27.05;;;;;;;5.74;82.10;102985.72;10522044;28;20044;-82
2022/01/28 20:51:14;;;;;;;76.95;27.80;;;;;;;5.65;82.65;102999.56;10500110;28;20152;-81
2022/01/28 20:56:16;;;;;;;74.97;27.60;;;;;;;5.64;83.05;102997.78;10526643;28;20071;-82
2022/01/28 21:01:17;;;;;;;65.72;25.33;;;;;;;5.58;83.01;103004.09;10465458;28;20094;-82
2022/01/28 21:12:33;;;;;;;78.80;29.15;;;;;;;5.70;82.91;103015.28;10471878;28;20522;-82
2022/01/28 21:17:35;;;;;;;69.40;27.55;;;;;;;5.69;82.50;103006.72;10468300;28;20490;-82
2022/01/28 21:22:37;;;;;;;68.10;26.85;;;;;;;5.70;82.92;103000.81;10561279;28;20442;-82
2022/01/28 21:27:40;;;;;;;69.07;28.25;;;;;;;5.78;82.99;103004.00;10495636;28;20041;-83
2022/01/28 21:32:41;;;;;;;71.85;27.95;;;;;;;5.69;82.50;102995.59;10502100;28;20102;-83
2022/01/28 21:37:43;;;;;;;61.05;25.83;;;;;;;5.67;82.33;102989.44;10501163;28;20080;-83
2022/01/28 21:42:47;;;;;;;70.57;26.20;;;;;;;5.89;82.64;102979.25;10484183;28;20055;-82
2022/01/28 21:47:49;;;;;;;63.92;26.60;;;;;;;5.95;82.07;102966.94;10502223;28;20076;-82
2022/01/28 21:52:50;;;;;;;71.45;27.20;;;;;;;5.82;82.80;102961.66;10473422;28;20103;-81
2022/01/28 22:04:27;;;;;;;;;;;;;;;5.82;83.08;102936.06;10460826;28;20403;-81
2022/01/28 22:09:29;;;;;;;60.03;26.00;;;;;;;5.82;82.87;102930.97;10458587;28;19986;-83
2022/01/28 22:14:31;;;;;;;67.78;26.25;;;;;;;5.88;82.92;102919.50;10442241;28;20045;-83
2022/01/28 22:19:32;;;;;;;57.70;25.02;;;;;;;5.69;83.47;102901.88;10458341;28;20098;-83
2022/01/28 22:24:34;;;;;;;70.05;26.27;;;;;;;5.96;82.59;102893.63;10440563;28;20056;-81
2022/01/28 22:29:36;;;;;;;65.15;26.30;;;;;;;5.85;82.83;102880.00;10487898;28;20081;-82
2022/01/28 22:34:37;;;;;;;71.78;27.13;;;;;;;5.80;82.66;102873.66;10524070;28;20447;-82
2022/01/28 22:39:39;;;;;;;65.95;25.48;;;;;;;5.87;82.64;102870.81;10541287;28;20127;-82
2022/01/28 22:44:41;;;;;;;68.47;27.33;;;;;;;5.96;82.62;102886.88;10526605;28;20040;-82
2022/01/28 22:49:42;;;;;;;58.40;25.95;;;;;;;5.91;82.32;102888.19;10514140;28;20557;-84
2022/01/28 22:54:44;;;;;;;57.20;25.30;;;;;;;5.81;83.20;102880.56;10483709;28;20078;-82
2022/01/28 22:59:47;;;;;;;57.58;25.48;;;;;;;5.83;82.64;102873.91;10480284;28;20078;-83
2022/01/28 23:04:48;;;;;;;57.00;25.10;;;;;;;5.93;82.44;102853.34;10521020;28;20177;-82
2022/01/28 23:10:15;;;;;;;55.15;23.88;;;;;;;5.96;81.88;102861.28;10475580;28;20075;-81
2022/01/28 23:15:17;;;;;;;52.45;24.75;;;;;;;6.01;81.83;102852.31;10476386;28;20084;-81
2022/01/28 23:20:18;;;;;;;52.13;23.98;;;;;;;6.08;81.81;102860.44;10504285;28;20419;-84
2022/01/28 23:25:20;;;;;;;57.75;25.58;;;;;;;6.08;81.49;102839.97;10481442;28;20045;-82
2022/01/28 23:30:22;;;;;;;56.88;25.67;;;;;;;6.06;81.65;102844.97;10481836;28;20079;-82
2022/01/28 23:35:23;;;;;;;55.03;25.05;;;;;;;5.95;81.27;102838.16;10483488;28;20128;-83
2022/01/28 23:40:25;;;;;;;56.28;24.38;;;;;;;6.05;81.94;102814.16;10489795;28;20052;-82
2022/01/28 23:45:27;;;;;;;52.22;23.15;;;;;;;5.95;81.89;102807.44;10498103;28;20052;-83
2022/01/28 23:50:32;;;;;;;48.53;21.70;;;;;;;5.96;81.84;102810.09;10484173;28;20049;-82
2022/01/28 23:55:34;;;;;;;49.25;21.98;;;;;;;6.01;81.97;102783.22;10483418;28;20056;-83
